Time;durP1;ratioP1;P1;durP2;ratioP2;P2;SDS_P1;SDS_P2;PMS_P1;PMS_P2;Temp;Humidity;BMP_temperature;BMP_pressure;BME280_temperature;BME280_humidity;BME280_pressure;Samples;Min_cycle;Max_cycle;Signal;HPM_P1;HPM_P2
2022/05/30 00:00:11;;;;;;;;;;;;;;;;;;5077634;28;19913;-43
2022/05/30 00:02:36;;;;;;;;;;;;;;;;;;5077465;28;19908;-43
2022/05/30 00:05:01;;;;;;;;;;;;;;;;;;5077827;28;19916;-43
2022/05/30 00:07:26;;;;;;;;;;;;;;;;;;5077495;28;19919;-43
2022/05/30 00:09:54;;;;;;;;;;;;;;;;;;5077366;28;19909;-43
2022/05/30 00:12:19;;;;;;;;;;;;;;;;;;5077093;28;19920;-43
2022/05/30 00:14:45;;;;;;;;;;;;;;;;;;5076870;28;19916;-43
2022/05/30 00:17:10;;;;;;;;;;;;;;;;;;5077422;28;19909;-43
2022/05/30 00:19:37;;;;;;;;;;;;;;;;;;5076997;28;20414;-43
2022/05/30 00:22:03;;;;;;;;;;;;;;;;;;5076994;28;19908;-42
2022/05/30 00:24:28;;;;;;;;;;;;;;;;;;5076994;28;19999;-44
2022/05/30 00:26:57;;;;;;;;;;;;;;;;;;5077762;28;20275;-42
2022/05/30 00:29:23;;;;;;;;;;;;;;;;;;5076966;28;19920;-43
2022/05/30 00:31:51;;;;;;;;;;;;;;;;;;5076518;28;19954;-43
2022/05/30 00:34:20;;;;;;;;;;;;;;;;;;5076830;28;20352;-43
2022/05/30 00:36:45;;;;;;;;;;;;;;;;;;5076977;28;19951;-43
2022/05/30 00:39:13;;;;;;;;;;;;;;;;;;5076850;28;19909;-42
2022/05/30 00:41:38;;;;;;;;;;;;;;;;;;5076920;28;20364;-42
2022/05/30 00:44:03;;;;;;;;;;;;;;;;;;5076945;28;19953;-43
2022/05/30 00:46:30;;;;;;;;;;;;;;;;;;5077010;28;19911;-43
2022/05/30 00:48:55;;;;;;;;;;;;;;;;;;5076639;28;19915;-43
2022/05/30 00:51:20;;;;;;;;;;;;;;;;;;5076771;28;19913;-43
2022/05/30 00:53:47;;;;;;;;;;;;;;;;;;5076288;28;19920;-43
2022/05/30 00:56:13;;;;;;;;;;;;;;;;;;5076612;28;19908;-43
2022/05/30 00:58:41;;;;;;;;;;;;;;;;;;5076622;28;19970;-42
2022/05/30 01:01:06;;;;;;;;;;;;;;;;;;5076160;28;19917;-42
2022/05/30 01:06:31;;;;;;;;;;;;;;;;;;5076287;28;19916;-42
2022/05/30 01:08:56;;;;;;;;;;;;;;;;;;5076489;28;19908;-43
2022/05/30 01:11:21;;;;;;;;;;;;;;;;;;5076179;28;19909;-43
2022/05/30 01:13:46;;;;;;;;;;;;;;;;;;5076212;28;19916;-43
2022/05/30 01:16:12;;;;;;;;;;;;;;;;;;5076335;28;20272;-43
2022/05/30 01:18:38;;;;;;;;;;;;;;;;;;5076608;28;19962;-42
2022/05/30 01:21:04;;;;;;;;;;;;;;;;;;5076070;28;19969;-42
2022/05/30 01:23:31;;;;;;;;;;;;;;;;;;5075677;28;19913;-42
2022/05/30 01:25:57;;;;;;;;;;;;;;;;;;5075988;28;19912;-42
2022/05/30 01:28:23;;;;;;;;;;;;;;;;;;5082927;22;19930;-42
2022/05/30 01:30:48;;;;;;;;;;;;;;;;;;5075640;28;19920;-43
2022/05/30 01:33:13;;;;;;;;;;;;;;;;;;5075396;28;19931;-43
2022/05/30 01:35:38;;;;;;;;;;;;;;;;;;5075500;28;19908;-42
2022/05/30 01:38:04;;;;;;;;;;;;;;;;;;5075527;28;20354;-42
2022/05/30 01:40:29;;;;;;;;;;;;;;;;;;5075549;28;19904;-42
2022/05/30 01:42:57;;;;;;;;;;;;;;;;;;5075619;28;19908;-42
2022/05/30 01:45:23;;;;;;;;;;;;;;;;;;5074870;28;19916;-43
2022/05/30 01:47:48;;;;;;;;;;;;;;;;;;5075484;28;19908;-43
2022/05/30 01:50:13;;;;;;;;;;;;;;;;;;5075424;28;19909;-42
2022/05/30 01:52:38;;;;;;;;;;;;;;;;;;5075233;28;19916;-44
2022/05/30 01:55:03;;;;;;;;;;;;;;;;;;5074936;28;20366;-43
2022/05/30 01:57:31;;;;;;;;;;;;;;;;;;5074791;28;20390;-42
2022/05/30 01:59:56;;;;;;;;;;;;;;;;;;5075191;28;19913;-43
2022/05/30 02:02:22;;;;;;;;;;;;;;;;;;5075083;28;19923;-42
2022/05/30 02:04:52;;;;;;;;;;;;;;;;;;5075467;28;19916;-43
2022/05/30 02:07:21;;;;;;;;;;;;;;;;;;5075140;28;19962;-43
2022/05/30 02:09:46;;;;;;;;;;;;;;;;;;5074882;28;19908;-42
2022/05/30 02:12:11;;;;;;;;;;;;;;;;;;5075268;28;20333;-42
2022/05/30 02:14:36;;;;;;;;;;;;;;;;;;5075123;28;19913;-43
2022/05/30 02:17:04;;;;;;;;;;;;;;;;;;5075035;28;19909;-43
2022/05/30 02:19:32;;;;;;;;;;;;;;;;;;5075054;28;20000;-42
2022/05/30 02:21:57;;;;;;;;;;;;;;;;;;5075012;28;19916;-42
2022/05/30 02:24:22;;;;;;;;;;;;;;;;;;5074341;28;20385;-42
2022/05/30 02:26:47;;;;;;;;;;;;;;;;;;5074495;28;20375;-42
2022/05/30 02:29:13;;;;;;;;;;;;;;;;;;5074604;28;19923;-42
2022/05/30 02:31:42;;;;;;;;;;;;;;;;;;5074875;28;19913;-42
2022/05/30 02:36:52;;;;;;;;;;;;;;;;;;5075029;28;20378;-43
2022/05/30 02:39:17;;;;;;;;;;;;;;;;;;5075077;28;19918;-43
2022/05/30 02:41:45;;;;;;;;;;;;;;;;;;5075020;28;19908;-43
2022/05/30 02:44:10;;;;;;;;;;;;;;;;;;5074895;28;19944;-42
2022/05/30 02:46:35;;;;;;;;;;;;;;;;;;5075918;28;19962;-42
2022/05/30 02:49:01;;;;;;;;;;;;;;;;;;5074952;28;20371;-43
2022/05/30 02:51:26;;;;;;;;;;;;;;;;;;5075079;28;19909;-43
2022/05/30 02:53:52;;;;;;;;;;;;;;;;;;5074361;28;19920;-42
2022/05/30 02:56:17;;;;;;;;;;;;;;;;;;5077050;28;19924;-44
2022/05/30 02:58:42;;;;;;;;;;;;;;;;;;5078810;28;19908;-43
2022/05/30 03:01:08;;;;;;;;;;;;;;;;;;5078845;28;19908;-42
2022/05/30 03:03:33;;;;;;;;;;;;;;;;;;5079387;28;19916;-43
2022/05/30 03:05:58;;;;;;;;;;;;;;;;;;5078517;28;20279;-42
2022/05/30 03:08:23;;;;;;;;;;;;;;;;;;5078719;28;19908;-43
2022/05/30 03:10:48;;;;;;;;;;;;;;;;;;5078582;28;19909;-43
2022/05/30 03:13:13;;;;;;;;;;;;;;;;;;5078539;28;20013;-43
2022/05/30 03:15:39;;;;;;;;;;;;;;;;;;5078586;28;19954;-43
2022/05/30 03:18:04;;;;;;;;;;;;;;;;;;5078431;28;19962;-42
2022/05/30 03:20:29;;;;;;;;;;;;;;;;;;5078315;28;19958;-43
2022/05/30 03:22:57;;;;;;;;;;;;;;;;;;5078269;28;19915;-42
2022/05/30 03:25:25;;;;;;;;;;;;;;;;;;5077262;28;20422;-43
2022/05/30 03:27:51;;;;;;;;;;;;;;;;;;5078504;28;19908;-43
2022/05/30 03:30:16;;;;;;;;;;;;;;;;;;5077963;28;20307;-43
2022/05/30 03:32:43;;;;;;;;;;;;;;;;;;5078042;28;19909;-42
2022/05/30 03:35:11;;;;;;;;;;;;;;;;;;5078044;28;19908;-43
2022/05/30 03:37:39;;;;;;;;;;;;;;;;;;5078148;28;19909;-43
2022/05/30 03:40:05;;;;;;;;;;;;;;;;;;5077791;28;19909;-43
2022/05/30 03:42:31;;;;;;;;;;;;;;;;;;5078174;28;20279;-42
2022/05/30 03:44:56;;;;;;;;;;;;;;;;;;5078043;28;19934;-43
2022/05/30 03:47:21;;;;;;;;;;;;;;;;;;5077838;28;19909;-43
2022/05/30 03:49:47;;;;;;;;;;;;;;;;;;5077813;28;19959;-43
2022/05/30 03:52:14;;;;;;;;;;;;;;;;;;5078146;28;20007;-43
2022/05/30 03:54:39;;;;;;;;;;;;;;;;;;5077526;28;20406;-43
2022/05/30 03:57:04;;;;;;;;;;;;;;;;;;5077626;28;19908;-43
2022/05/30 03:59:29;;;;;;;;;;;;;;;;;;5077524;28;19912;-42
2022/05/30 04:01:54;;;;;;;;;;;;;;;;;;5077620;28;19908;-42
2022/05/30 04:04:19;;;;;;;;;;;;;;;;;;5077538;28;19908;-43
2022/05/30 04:06:47;;;;;;;;;;;;;;;;;;5077102;28;19962;-42
2022/05/30 04:09:14;;;;;;;;;;;;;;;;;;5077287;28;19908;-42
2022/05/30 04:11:41;;;;;;;;;;;;;;;;;;5077438;28;19913;-43
2022/05/30 04:14:06;;;;;;;;;;;;;;;;;;5077186;28;19916;-44
2022/05/30 04:16:31;;;;;;;;;;;;;;;;;;5077651;28;20249;-43
2022/05/30 04:19:01;;;;;;;;;;;;;;;;;;5077355;28;19915;-44
2022/05/30 04:21:26;;;;;;;;;;;;;;;;;;5077275;28;19919;-43
2022/05/30 04:23:51;;;;;;;;;;;;;;;;;;5076894;28;19999;-43
2022/05/30 04:26:19;;;;;;;;;;;;;;;;;;5077013;28;20361;-43
2022/05/30 04:28:44;;;;;;;;;;;;;;;;;;5077159;28;19940;-43
2022/05/30 04:31:10;;;;;;;;;;;;;;;;;;5077110;28;19916;-42
2022/05/30 04:33:39;;;;;;;;;;;;;;;;;;5076784;28;19941;-43
2022/05/30 04:36:07;;;;;;;;;;;;;;;;;;5076776;28;19991;-43
2022/05/30 04:38:32;;;;;;;;;;;;;;;;;;5075248;28;20271;-43
2022/05/30 04:40:57;;;;;;;;;;;;;;;;;;5076888;28;19935;-43
2022/05/30 04:43:23;;;;;;;;;;;;;;;;;;5076470;28;19908;-45
2022/05/30 04:45:49;;;;;;;;;;;;;;;;;;5076851;28;20356;-43
2022/05/30 04:48:17;;;;;;;;;;;;;;;;;;5076872;28;20025;-43
2022/05/30 04:50:44;;;;;;;;;;;;;;;;;;5076688;28;20344;-43
2022/05/30 04:53:09;;;;;;;;;;;;;;;;;;5076744;28;19966;-43
2022/05/30 04:55:35;;;;;;;;;;;;;;;;;;5076382;28;19912;-43
2022/05/30 04:58:01;;;;;;;;;;;;;;;;;;5076363;28;20324;-43
2022/05/30 05:00:28;;;;;;;;;;;;;;;;;;5076250;28;19940;-43
2022/05/30 05:02:54;;;;;;;;;;;;;;;;;;5076255;28;19991;-43
2022/05/30 05:05:20;;;;;;;;;;;;;;;;;;5076312;28;20350;-43
2022/05/30 05:07:48;;;;;;;;;;;;;;;;;;5066495;28;20368;-43
2022/05/30 05:10:16;;;;;;;;;;;;;;;;;;5056612;28;19913;-43
2022/05/30 05:12:41;;;;;;;;;;;;;;;;;;5056160;28;19928;-43
2022/05/30 05:15:07;;;;;;;;;;;;;;;;;;5056261;28;19916;-43
2022/05/30 05:17:33;;;;;;;;;;;;;;;;;;5056107;28;19970;-43
2022/05/30 05:19:59;;;;;;;;;;;;;;;;;;5055195;28;19913;-43
2022/05/30 05:22:24;;;;;;;;;;;;;;;;;;5055803;28;20003;-44
2022/05/30 05:24:50;;;;;;;;;;;;;;;;;;5068286;28;19966;-43
2022/05/30 05:27:15;;;;;;;;;;;;;;;;;;5075886;28;19912;-43
2022/05/30 05:29:40;;;;;;;;;;;;;;;;;;5062543;28;19924;-42
2022/05/30 05:32:08;;;;;;;;;;;;;;;;;;5061100;28;19913;-43
2022/05/30 05:34:33;;;;;;;;;;;;;;;;;;5052686;28;19927;-43
2022/05/30 05:36:59;;;;;;;;;;;;;;;;;;5055828;28;19924;-43
2022/05/30 05:39:25;;;;;;;;;;;;;;;;;;5071133;28;20458;-45
2022/05/30 05:41:51;;;;;;;;;;;;;;;;;;5069200;28;19977;-44
2022/05/30 05:44:16;;;;;;;;;;;;;;;;;;5068219;28;20325;-45
2022/05/30 05:46:41;;;;;;;;;;;;;;;;;;5071207;28;19919;-44
2022/05/30 05:49:09;;;;;;;;;;;;;;;;;;5063044;28;19966;-45
2022/05/30 05:51:34;;;;;;;;;;;;;;;;;;5063905;28;19912;-46
2022/05/30 05:53:59;;;;;;;;;;;;;;;;;;5056923;28;20291;-45
2022/05/30 05:56:24;;;;;;;;;;;;;;;;;;5058417;28;22070;-44
2022/05/30 05:58:50;;;;;;;;;;;;;;;;;;5053802;28;20034;-44
2022/05/30 06:01:15;;;;;;;;;;;;;;;;;;5049473;28;19927;-44
2022/05/30 06:03:40;;;;;;;;;;;;;;;;;;5049115;28;19913;-46
2022/05/30 06:06:05;;;;;;;;;;;;;;;;;;5048179;28;19948;-45
2022/05/30 06:08:30;;;;;;;;;;;;;;;;;;5046020;28;19975;-45
2022/05/30 06:11:05;;;;;;;;;;;;;;;;;;5020952;28;19920;-45
2022/05/30 06:13:30;;;;;;;;;;;;;;;;;;4990574;28;19968;-45
2022/05/30 06:15:55;;;;;;;;;;;;;;;;;;4940439;28;19921;-45
2022/05/30 06:18:20;;;;;;;;;;;;;;;;;;4912767;28;19931;-46
2022/05/30 06:20:45;;;;;;;;;;;;;;;;;;4884195;28;21044;-44
2022/05/30 06:23:11;;;;;;;;;;;;;;;;;;4786565;28;20914;-46
2022/05/30 06:25:36;;;;;;;;;;;;;;;;;;4722789;28;19920;-46
2022/05/30 06:28:01;;;;;;;;;;;;;;;;;;4604767;28;21566;-46
2022/05/30 06:30:26;;;;;;;;;;;;;;;;;;4549322;28;32357;-46
2022/05/30 06:32:51;;;;;;;;;;;;;;;;;;4619993;28;22544;-45
2022/05/30 06:35:16;;;;;;;;;;;;;;;;;;4753430;28;23125;-46
2022/05/30 06:37:41;;;;;;;;;;;;;;;;;;4857660;28;26415;-45
2022/05/30 06:40:06;;;;;;;;;;;;;;;;;;4823204;28;28457;-46
2022/05/30 06:42:31;;;;;;;;;;;;;;;;;;4842708;28;23932;-46
2022/05/30 06:44:56;;;;;;;;;;;;;;;;;;4875226;28;21637;-45
2022/05/30 06:47:22;;;;;;;;;;;;;;;;;;4881762;28;20777;-46
2022/05/30 06:49:47;;;;;;;;;;;;;;;;;;4862927;28;24266;-46
2022/05/30 06:52:12;;;;;;;;;;;;;;;;;;4851197;28;19927;-46
2022/05/30 06:54:37;;;;;;;;;;;;;;;;;;4878732;28;20071;-45
2022/05/30 07:00:03;;;;;;;;;;;;;;;;;;4801600;28;24065;-45
2022/05/30 07:02:28;;;;;;;;;;;;;;;;;;4805858;28;26719;-46
2022/05/30 07:04:53;;;;;;;;;;;;;;;;;;4829924;28;19958;-46
2022/05/30 07:07:18;;;;;;;;;;;;;;;;;;4854619;28;22332;-46
2022/05/30 07:09:43;;;;;;;;;;;;;;;;;;4829084;28;20638;-46
2022/05/30 07:12:09;;;;;;;;;;;;;;;;;;4808412;28;23080;-45
2022/05/30 07:14:34;;;;;;;;;;;;;;;;;;4802818;28;20491;-46
2022/05/30 07:16:59;;;;;;;;;;;;;;;;;;4790427;28;21690;-45
2022/05/30 07:19:24;;;;;;;;;;;;;;;;;;4740000;28;21589;-46
2022/05/30 07:21:49;;;;;;;;;;;;;;;;;;4583623;28;26209;-47
2022/05/30 07:24:14;;;;;;;;;;;;;;;;;;4375577;28;41872;-47
2022/05/30 07:26:39;;;;;;;;;;;;;;;;;;4582610;28;28490;-46
2022/05/30 07:29:04;;;;;;;;;;;;;;;;;;4567100;28;37700;-47
2022/05/30 07:31:30;;;;;;;;;;;;;;;;;;4615478;28;37049;-45
2022/05/30 07:33:55;;;;;;;;;;;;;;;;;;4732068;28;25740;-45
2022/05/30 07:36:21;;;;;;;;;;;;;;;;;;4729256;28;29676;-45
2022/05/30 07:38:46;;;;;;;;;;;;;;;;;;4731368;28;30709;-47
2022/05/30 07:41:11;;;;;;;;;;;;;;;;;;4729010;28;20445;-44
2022/05/30 07:43:36;;;;;;;;;;;;;;;;;;4750560;28;21563;-45
2022/05/30 07:46:01;;;;;;;;;;;;;;;;;;4751181;28;20696;-46
2022/05/30 07:48:27;;;;;;;;;;;;;;;;;;4775233;28;20117;-45
2022/05/30 07:50:52;;;;;;;;;;;;;;;;;;4742835;28;20562;-46
2022/05/30 07:53:17;;;;;;;;;;;;;;;;;;4739498;28;20690;-45
2022/05/30 07:55:42;;;;;;;;;;;;;;;;;;4754298;28;35972;-45
2022/05/30 07:58:07;;;;;;;;;;;;;;;;;;4758290;28;19920;-47
2022/05/30 08:00:32;;;;;;;;;;;;;;;;;;4688124;28;39074;-47
2022/05/30 08:02:57;;;;;;;;;;;;;;;;;;4720207;28;34533;-45
2022/05/30 08:05:22;;;;;;;;;;;;;;;;;;4696366;28;41867;-44
2022/05/30 08:07:47;;;;;;;;;;;;;;;;;;4720244;28;32685;-45
2022/05/30 08:10:13;;;;;;;;;;;;;;;;;;4627356;28;23181;-45
2022/05/30 08:12:38;;;;;;;;;;;;;;;;;;4381516;28;45531;-45
2022/05/30 08:15:03;;;;;;;;;;;;;;;;;;4584725;28;38137;-44
2022/05/30 08:17:29;;;;;;;;;;;;;;;;;;4686510;28;22434;-47
2022/05/30 08:19:54;;;;;;;;;;;;;;;;;;4741853;28;26436;-45
2022/05/30 08:22:19;;;;;;;;;;;;;;;;;;4755665;28;27045;-46
2022/05/30 08:24:44;;;;;;;;;;;;;;;;;;4752525;28;28534;-46
2022/05/30 08:27:09;;;;;;;;;;;;;;;;;;4751182;28;27454;-45
2022/05/30 08:29:34;;;;;;;;;;;;;;;;;;4727932;28;29166;-47
2022/05/30 08:31:59;;;;;;;;;;;;;;;;;;4748259;28;28124;-46
2022/05/30 08:34:24;;;;;;;;;;;;;;;;;;4774369;28;23290;-45
2022/05/30 08:36:49;;;;;;;;;;;;;;;;;;4782480;28;27270;-46
2022/05/30 08:42:00;;;;;;;;;;;;;;;;;;4800503;28;28213;-48
2022/05/30 08:44:25;;;;;;;;;;;;;;;;;;4811308;28;22376;-45
2022/05/30 08:46:56;;;;;;;;;;;;;;;;;;4799625;28;24159;-48
2022/05/30 08:49:22;;;;;;;;;;;;;;;;;;4810411;28;31295;-48
2022/05/30 08:51:47;;;;;;;;;;;;;;;;;;4815082;28;35196;-47
2022/05/30 08:54:12;;;;;;;;;;;;;;;;;;4806467;28;30798;-48
2022/05/30 08:56:37;;;;;;;;;;;;;;;;;;4793409;28;33160;-46
2022/05/30 08:59:03;;;;;;;;;;;;;;;;;;4803011;28;35196;-49
2022/05/30 09:01:28;;;;;;;;;;;;;;;;;;4798830;28;23071;-48
2022/05/30 09:04:16;;;;;;;;;;;;;;;;;;4803881;28;31698;-48
2022/05/30 09:06:41;;;;;;;;;;;;;;;;;;4817077;28;21447;-46
2022/05/30 09:09:06;;;;;;;;;;;;;;;;;;4817750;28;19920;-48
2022/05/30 09:11:31;;;;;;;;;;;;;;;;;;4809640;28;26770;-48
2022/05/30 09:13:56;;;;;;;;;;;;;;;;;;4803397;28;20424;-48
2022/05/30 09:16:22;;;;;;;;;;;;;;;;;;4775406;28;35588;-48
2022/05/30 09:18:47;;;;;;;;;;;;;;;;;;4740359;28;33048;-48
2022/05/30 09:21:13;;;;;;;;;;;;;;;;;;4650944;28;37667;-47
2022/05/30 09:23:38;;;;;;;;;;;;;;;;;;4486243;28;21615;-45
2022/05/30 09:26:07;;;;;;;;;;;;;;;;;;4598852;28;22145;-48
2022/05/30 09:28:32;;;;;;;;;;;;;;;;;;4710326;28;22229;-48
2022/05/30 09:30:57;;;;;;;;;;;;;;;;;;4772961;28;28587;-47
2022/05/30 09:33:22;;;;;;;;;;;;;;;;;;4800913;28;21526;-49
2022/05/30 09:35:47;;;;;;;;;;;;;;;;;;4818200;28;27482;-49
2022/05/30 09:38:12;;;;;;;;;;;;;;;;;;4827697;28;23264;-50
2022/05/30 09:40:38;;;;;;;;;;;;;;;;;;4834865;28;19925;-48
2022/05/30 09:43:04;;;;;;;;;;;;;;;;;;4811923;28;22039;-46
2022/05/30 09:45:30;;;;;;;;;;;;;;;;;;4827595;28;23407;-50
2022/05/30 09:47:55;;;;;;;;;;;;;;;;;;4831437;28;30821;-49
2022/05/30 09:50:20;;;;;;;;;;;;;;;;;;4832008;28;23732;-50
2022/05/30 09:52:46;;;;;;;;;;;;;;;;;;4809950;28;22982;-48
2022/05/30 09:55:11;;;;;;;;;;;;;;;;;;4797485;28;21792;-48
2022/05/30 09:57:36;;;;;;;;;;;;;;;;;;4796452;28;24020;-49
2022/05/30 10:00:01;;;;;;;;;;;;;;;;;;4788894;28;20481;-48
2022/05/30 10:02:27;;;;;;;;;;;;;;;;;;4788036;28;27152;-47
2022/05/30 10:04:52;;;;;;;;;;;;;;;;;;4804506;28;19927;-48
2022/05/30 10:07:17;;;;;;;;;;;;;;;;;;4804267;28;37294;-48
2022/05/30 10:09:42;;;;;;;;;;;;;;;;;;4766632;28;19921;-47
2022/05/30 10:12:07;;;;;;;;;;;;;;;;;;4477748;28;21341;-45
2022/05/30 10:14:34;;;;;;;;;;;;;;;;;;4480024;28;32668;-47
2022/05/30 10:17:09;;;;;;;;;;;;;;;;;;4494310;28;34155;-47
2022/05/30 10:19:34;;;;;;;;;;;;;;;;;;4673898;28;25555;-48
2022/05/30 10:30:27;;;;;;;;;;;;;;;;;;4694040;28;35379;-47
2022/05/30 10:32:53;;;;;;;;;;;;;;;;;;4694244;28;36352;-48
2022/05/30 10:35:18;;;;;;;;;;;;;;;;;;4719154;28;30949;-50
2022/05/30 10:37:44;;;;;;;;;;;;;;;;;;4534391;28;21321;-48
2022/05/30 10:40:09;;;;;;;;;;;;;;;;;;4575957;28;21364;-46
2022/05/30 10:42:34;;;;;;;;;;;;;;;;;;4570275;28;24527;-47
2022/05/30 10:44:59;;;;;;;;;;;;;;;;;;4632242;28;29878;-47
2022/05/30 10:47:24;;;;;;;;;;;;;;;;;;4697439;28;24701;-46
2022/05/30 10:49:49;;;;;;;;;;;;;;;;;;4703890;28;32915;-48
2022/05/30 10:52:14;;;;;;;;;;;;;;;;;;4725833;28;29877;-46
2022/05/30 10:54:40;;;;;;;;;;;;;;;;;;4726403;28;26377;-48
2022/05/30 10:57:06;;;;;;;;;;;;;;;;;;4754812;28;32506;-45
2022/05/30 10:59:31;;;;;;;;;;;;;;;;;;4691602;28;24725;-47
2022/05/30 11:01:57;;;;;;;;;;;;;;;;;;4735665;28;24796;-49
2022/05/30 11:04:22;;;;;;;;;;;;;;;;;;4740765;28;31177;-47
2022/05/30 11:06:47;;;;;;;;;;;;;;;;;;4753514;28;34286;-49
2022/05/30 11:09:12;;;;;;;;;;;;;;;;;;4784278;28;29279;-48
2022/05/30 11:11:37;;;;;;;;;;;;;;;;;;4805898;28;24239;-48
2022/05/30 11:14:03;;;;;;;;;;;;;;;;;;4819227;28;22755;-50
2022/05/30 11:16:28;;;;;;;;;;;;;;;;;;4829444;28;20283;-50
2022/05/30 11:18:54;;;;;;;;;;;;;;;;;;4812089;28;23503;-48
2022/05/30 11:21:20;;;;;;;;;;;;;;;;;;4796304;28;20113;-48
2022/05/30 11:23:45;;;;;;;;;;;;;;;;;;4797272;28;23357;-47
2022/05/30 11:26:10;;;;;;;;;;;;;;;;;;4802916;28;19928;-48
2022/05/30 11:28:36;;;;;;;;;;;;;;;;;;4770728;28;19920;-49
2022/05/30 11:31:01;;;;;;;;;;;;;;;;;;4755192;28;21335;-49
2022/05/30 11:33:27;;;;;;;;;;;;;;;;;;4748449;28;19934;-50
2022/05/30 11:35:53;;;;;;;;;;;;;;;;;;4752167;28;19920;-49
2022/05/30 11:38:18;;;;;;;;;;;;;;;;;;4776619;28;19963;-50
2022/05/30 11:40:43;;;;;;;;;;;;;;;;;;4795432;28;26784;-49
2022/05/30 11:43:08;;;;;;;;;;;;;;;;;;4808260;28;27301;-50
2022/05/30 11:45:33;;;;;;;;;;;;;;;;;;4803813;28;24963;-49
2022/05/30 11:47:58;;;;;;;;;;;;;;;;;;4801472;28;26156;-51
2022/05/30 11:50:24;;;;;;;;;;;;;;;;;;4798601;28;27860;-51
2022/05/30 11:52:49;;;;;;;;;;;;;;;;;;4787925;28;36165;-49
2022/05/30 11:55:14;;;;;;;;;;;;;;;;;;4801525;28;37502;-49
2022/05/30 11:57:39;;;;;;;;;;;;;;;;;;4793828;28;35205;-47
2022/05/30 12:00:04;;;;;;;;;;;;;;;;;;4772816;28;34984;-50
2022/05/30 12:02:29;;;;;;;;;;;;;;;;;;4754542;28;28305;-52
2022/05/30 12:04:55;;;;;;;;;;;;;;;;;;4763947;28;31664;-49
2022/05/30 12:07:20;;;;;;;;;;;;;;;;;;4780855;28;32049;-49
2022/05/30 12:09:45;;;;;;;;;;;;;;;;;;4796843;28;31236;-49
2022/05/30 12:12:11;;;;;;;;;;;;;;;;;;4782303;28;35315;-48
2022/05/30 12:14:36;;;;;;;;;;;;;;;;;;4773594;28;37177;-51
2022/05/30 12:17:01;;;;;;;;;;;;;;;;;;4781418;28;19920;-50
2022/05/30 12:24:55;;;;;;;;;;;;;;;;;;4734308;28;30312;-51
2022/05/30 12:27:20;;;;;;;;;;;;;;;;;;4764065;28;29969;-48
2022/05/30 12:29:45;;;;;;;;;;;;;;;;;;4785520;28;31743;-49
2022/05/30 12:32:11;;;;;;;;;;;;;;;;;;4835620;28;20130;-49
2022/05/30 12:34:36;;;;;;;;;;;;;;;;;;4849267;28;20180;-49
2022/05/30 12:37:01;;;;;;;;;;;;;;;;;;4816774;28;20705;-49
2022/05/30 12:39:26;;;;;;;;;;;;;;;;;;4857648;28;20290;-49
2022/05/30 12:41:51;;;;;;;;;;;;;;;;;;4808274;28;20714;-49
2022/05/30 12:44:16;;;;;;;;;;;;;;;;;;4871346;28;19925;-49
2022/05/30 12:46:42;;;;;;;;;;;;;;;;;;4855169;28;20517;-48
2022/05/30 12:49:07;;;;;;;;;;;;;;;;;;4884430;28;22146;-49
2022/05/30 12:51:32;;;;;;;;;;;;;;;;;;4844982;28;21192;-48
2022/05/30 12:53:57;;;;;;;;;;;;;;;;;;4865197;28;19924;-51
2022/05/30 12:56:22;;;;;;;;;;;;;;;;;;4847189;28;22730;-48
2022/05/30 12:58:47;;;;;;;;;;;;;;;;;;4863927;28;22442;-48
2022/05/30 13:01:12;;;;;;;;;;;;;;;;;;4801526;28;22567;-50
2022/05/30 13:03:39;;;;;;;;;;;;;;;;;;4814260;28;19967;-49
2022/05/30 13:06:06;;;;;;;;;;;;;;;;;;4818621;28;19920;-49
2022/05/30 13:08:31;;;;;;;;;;;;;;;;;;4835875;28;37223;-51
2022/05/30 13:10:56;;;;;;;;;;;;;;;;;;4760427;28;20055;-49
2022/05/30 13:13:21;;;;;;;;;;;;;;;;;;4673736;28;19954;-48
2022/05/30 13:15:46;;;;;;;;;;;;;;;;;;4666102;28;25038;-49
2022/05/30 13:18:11;;;;;;;;;;;;;;;;;;4743217;28;26523;-49
2022/05/30 13:20:36;;;;;;;;;;;;;;;;;;4862582;28;19928;-49
2022/05/30 13:23:01;;;;;;;;;;;;;;;;;;4879210;28;19921;-50
2022/05/30 13:25:27;;;;;;;;;;;;;;;;;;4916382;28;20655;-49
2022/05/30 13:27:52;;;;;;;;;;;;;;;;;;4882180;28;20376;-49
2022/05/30 13:30:18;;;;;;;;;;;;;;;;;;4950599;22;21295;-49
2022/05/30 13:32:43;;;;;;;;;;;;;;;;;;4936738;28;22041;-49
2022/05/30 13:35:08;;;;;;;;;;;;;;;;;;4953991;28;20486;-50
2022/05/30 13:37:35;;;;;;;;;;;;;;;;;;4935282;28;20244;-49
2022/05/30 13:40:00;;;;;;;;;;;;;;;;;;4935185;28;20011;-48
2022/05/30 13:42:25;;;;;;;;;;;;;;;;;;4928819;28;21311;-48
2022/05/30 13:44:50;;;;;;;;;;;;;;;;;;4927041;28;21799;-50
2022/05/30 13:47:15;;;;;;;;;;;;;;;;;;4930173;28;19921;-49
2022/05/30 13:49:40;;;;;;;;;;;;;;;;;;4915520;28;20078;-49
2022/05/30 13:52:06;;;;;;;;;;;;;;;;;;4949245;28;19967;-48
2022/05/30 13:54:33;;;;;;;;;;;;;;;;;;4946438;28;19929;-50
2022/05/30 13:57:01;;;;;;;;;;;;;;;;;;4935408;28;19938;-49
2022/05/30 13:59:26;;;;;;;;;;;;;;;;;;4953615;28;19917;-48
2022/05/30 14:01:51;;;;;;;;;;;;;;;;;;4931220;28;19967;-48
2022/05/30 14:04:16;;;;;;;;;;;;;;;;;;4916552;28;19921;-48
2022/05/30 14:06:43;;;;;;;;;;;;;;;;;;4938932;28;19920;-49
2022/05/30 14:09:08;;;;;;;;;;;;;;;;;;4975471;28;19921;-47
2022/05/30 14:11:33;;;;;;;;;;;;;;;;;;4984684;28;19921;-48
2022/05/30 14:13:59;;;;;;;;;;;;;;;;;;4995842;28;19968;-49
2022/05/30 14:16:24;;;;;;;;;;;;;;;;;;5020248;28;20537;-48
2022/05/30 14:18:49;;;;;;;;;;;;;;;;;;5024202;28;19917;-49
2022/05/30 14:21:15;;;;;;;;;;;;;;;;;;5030363;28;19917;-47
2022/05/30 14:23:40;;;;;;;;;;;;;;;;;;5033714;28;19917;-47
2022/05/30 14:26:06;;;;;;;;;;;;;;;;;;5024935;28;19971;-49
2022/05/30 14:28:31;;;;;;;;;;;;;;;;;;5021313;28;19948;-48
2022/05/30 14:30:56;;;;;;;;;;;;;;;;;;5029221;28;19947;-49
2022/05/30 14:33:21;;;;;;;;;;;;;;;;;;5029230;28;19921;-51
2022/05/30 14:35:47;;;;;;;;;;;;;;;;;;5030381;28;19913;-49
2022/05/30 14:38:12;;;;;;;;;;;;;;;;;;5032287;28;19925;-49
2022/05/30 14:40:37;;;;;;;;;;;;;;;;;;5027324;28;19921;-47
2022/05/30 14:43:03;;;;;;;;;;;;;;;;;;5024855;28;19963;-48
2022/05/30 14:45:28;;;;;;;;;;;;;;;;;;5026768;28;19917;-48
2022/05/30 14:47:53;;;;;;;;;;;;;;;;;;5031534;28;19920;-48
2022/05/30 14:50:19;;;;;;;;;;;;;;;;;;5034439;28;21757;-50
2022/05/30 14:52:46;;;;;;;;;;;;;;;;;;5031060;28;19921;-49
2022/05/30 14:55:11;;;;;;;;;;;;;;;;;;5032164;28;19971;-49
2022/05/30 14:57:37;;;;;;;;;;;;;;;;;;5037414;28;22332;-48
2022/05/30 15:00:03;;;;;;;;;;;;;;;;;;5041963;28;19920;-47
2022/05/30 15:05:14;;;;;;;;;;;;;;;;;;5050947;28;19962;-47
2022/05/30 15:07:42;;;;;;;;;;;;;;;;;;5054307;28;20279;-47
2022/05/30 15:10:07;;;;;;;;;;;;;;;;;;5060379;28;20011;-48
2022/05/30 15:12:32;;;;;;;;;;;;;;;;;;5059975;28;19959;-50
2022/05/30 15:14:58;;;;;;;;;;;;;;;;;;5058256;28;19916;-47
2022/05/30 15:17:23;;;;;;;;;;;;;;;;;;5051665;28;20404;-49
2022/05/30 15:19:48;;;;;;;;;;;;;;;;;;5055281;28;19913;-48
2022/05/30 15:22:16;;;;;;;;;;;;;;;;;;5058184;28;20282;-49
2022/05/30 15:24:43;;;;;;;;;;;;;;;;;;5056266;28;20265;-49
2022/05/30 15:27:08;;;;;;;;;;;;;;;;;;5058115;28;19958;-49
2022/05/30 15:29:34;;;;;;;;;;;;;;;;;;5060776;28;19921;-49
2022/05/30 15:31:59;;;;;;;;;;;;;;;;;;5061382;28;20320;-49
2022/05/30 15:34:24;;;;;;;;;;;;;;;;;;5059643;28;19920;-47
2022/05/30 15:36:49;;;;;;;;;;;;;;;;;;5058692;28;19913;-49
2022/05/30 15:39:15;;;;;;;;;;;;;;;;;;5059817;28;20275;-48
2022/05/30 15:41:40;;;;;;;;;;;;;;;;;;5060140;28;19920;-49
2022/05/30 15:44:05;;;;;;;;;;;;;;;;;;5060423;28;19916;-46
2022/05/30 15:46:30;;;;;;;;;;;;;;;;;;5061085;28;19909;-49
2022/05/30 15:48:57;;;;;;;;;;;;;;;;;;5052718;28;19917;-46
2022/05/30 15:51:22;;;;;;;;;;;;;;;;;;5061175;28;19966;-48
2022/05/30 15:59:15;;;;;;;;;;;;;;;;;;5058819;28;19923;-49
2022/05/30 16:01:41;;;;;;;;;;;;;;;;;;5060144;28;20338;-48
2022/05/30 16:04:08;;;;;;;;;;;;;;;;;;5058734;28;20375;-50
2022/05/30 16:06:33;;;;;;;;;;;;;;;;;;5056831;28;20344;-44
2022/05/30 16:09:00;;;;;;;;;;;;;;;;;;5056210;28;19913;-44
2022/05/30 16:11:25;;;;;;;;;;;;;;;;;;5057009;28;20434;-44
2022/05/30 16:13:51;;;;;;;;;;;;;;;;;;5056900;28;19948;-43
2022/05/30 16:16:17;;;;;;;;;;;;;;;;;;5057073;28;19916;-45
2022/05/30 16:18:42;;;;;;;;;;;;;;;;;;5056855;28;19961;-44
2022/05/30 16:21:09;;;;;;;;;;;;;;;;;;5072467;28;20015;-44
2022/05/30 16:23:34;;;;;;;;;;;;;;;;;;5056659;28;19909;-43
2022/05/30 16:25:59;;;;;;;;;;;;;;;;;;5056666;28;19958;-43
2022/05/30 16:28:24;;;;;;;;;;;;;;;;;;5056498;28;20245;-44
2022/05/30 16:30:51;;;;;;;;;;;;;;;;;;5056607;28;19917;-43
2022/05/30 16:33:16;;;;;;;;;;;;;;;;;;5056543;28;19913;-45
2022/05/30 16:35:41;;;;;;;;;;;;;;;;;;5056329;28;19921;-43
2022/05/30 16:38:06;;;;;;;;;;;;;;;;;;5056395;28;19912;-43
2022/05/30 16:40:34;;;;;;;;;;;;;;;;;;5056695;28;20000;-43
2022/05/30 16:42:59;;;;;;;;;;;;;;;;;;5055159;28;19916;-44
2022/05/30 16:45:26;;;;;;;;;;;;;;;;;;5056508;28;19909;-44
2022/05/30 16:47:51;;;;;;;;;;;;;;;;;;5056365;28;19908;-44
2022/05/30 16:50:17;;;;;;;;;;;;;;;;;;5056195;28;19909;-43
2022/05/30 16:52:44;;;;;;;;;;;;;;;;;;5056170;28;19916;-44
2022/05/30 16:55:09;;;;;;;;;;;;;;;;;;5055281;28;20011;-44
2022/05/30 16:57:34;;;;;;;;;;;;;;;;;;5048684;28;20012;-43
2022/05/30 17:00:00;;;;;;;;;;;;;;;;;;5055580;28;19995;-44
2022/05/30 17:02:27;;;;;;;;;;;;;;;;;;5055476;28;19913;-43
2022/05/30 17:04:53;;;;;;;;;;;;;;;;;;5055983;28;19913;-44
2022/05/30 17:07:22;;;;;;;;;;;;;;;;;;5055644;28;19909;-43